AFL321 VRMM-UUEE
Flight info
| Callsign | AFL321 |
|---|---|
| Flight time | N/A |
| Altitude | 33000 |
| Route | PATLO1A PATLO R457 TVM/N0504F340 Q12 KABSO/N0506F330 Q12 BBB/N0498F350 G208 APANO/N0504F340 G208 KE B210 NH/N0499F350 G326 ZB G325 LAKRA/N0491F360 M881 LAJAK L509 TAPIS M875 AMDAR/K0907F360 M875 ODILA/K0900F380 M875 MULTA M162 PODUT T750 OKSUD T787 OTKOL T784 LARNO T291 URIDU L158 DIMGI DIMGI3F |
| Aircraft | B77W/H-SDE1E2E3FGHIJ2J3J4J5M1RWXY/LB1D1 |
Departure
| Time | 2026-05-08 23:08 |
|---|---|
| Airport | Velana International Airport (VRMM) |
Arrival
| Time | N/A |
|---|---|
| Airport | Sheremetyevo International Airport (UUEE) |
| Time | Latitude | Longitude | Altitude | Speed | Heading |
|---|---|---|---|---|---|
| 2026-05-08 22:18 | 4.18386 | 73.52798 | 17 ft | 0 kts | 269° |
| 2026-05-08 22:19 | 4.18387 | 73.52791 | 17 ft | 0 kts | 269° |
| 2026-05-08 22:59 | 4.18387 | 73.52793 | 17 ft | 2 kts | 269° |
| 2026-05-08 22:59 | 4.18387 | 73.52819 | 17 ft | 4 kts | 269° |
| 2026-05-08 23:00 | 4.18388 | 73.52842 | 17 ft | 4 kts | 255° |
| 2026-05-08 23:00 | 4.18399 | 73.52860 | 17 ft | 4 kts | 193° |
| 2026-05-08 23:00 | 4.18416 | 73.52862 | 17 ft | 4 kts | 172° |
| 2026-05-08 23:00 | 4.18439 | 73.52859 | 17 ft | 1 kts | 179° |
| 2026-05-08 23:01 | 4.18440 | 73.52858 | 17 ft | 0 kts | 179° |
| 2026-05-08 23:03 | 4.18439 | 73.52859 | 17 ft | 1 kts | 179° |
| 2026-05-08 23:03 | 4.18395 | 73.52859 | 17 ft | 12 kts | 179° |
| 2026-05-08 23:04 | 4.18307 | 73.52860 | 17 ft | 13 kts | 179° |
| 2026-05-08 23:04 | 4.18220 | 73.52862 | 17 ft | 13 kts | 179° |
| 2026-05-08 23:04 | 4.18137 | 73.52873 | 17 ft | 12 kts | 144° |
| 2026-05-08 23:04 | 4.18168 | 73.52938 | 17 ft | 15 kts | 32° |
| 2026-05-08 23:05 | 4.18197 | 73.53032 | 17 ft | 16 kts | 88° |
| 2026-05-08 23:05 | 4.18238 | 73.53103 | 17 ft | 10 kts | 13° |
| 2026-05-08 23:05 | 4.18280 | 73.53103 | 17 ft | 0 kts | 359° |
| 2026-05-08 23:07 | 4.18334 | 73.53102 | 17 ft | 28 kts | 360° |
| 2026-05-08 23:07 | 4.18780 | 73.53102 | 17 ft | 99 kts | 360° |
| 2026-05-08 23:07 | 4.19686 | 73.53099 | 17 ft | 159 kts | 0° |
| 2026-05-08 23:08 | 4.20902 | 73.53079 | 268 ft | 177 kts | 357° |
| 2026-05-08 23:08 | 4.22140 | 73.53084 | 807 ft | 181 kts | 356° |
| 2026-05-08 23:08 | 4.23440 | 73.53090 | 1228 ft | 191 kts | 356° |
| 2026-05-08 23:08 | 4.24791 | 73.53093 | 1728 ft | 197 kts | 356° |
| 2026-05-08 23:09 | 4.26200 | 73.53094 | 2103 ft | 212 kts | 356° |
| 2026-05-08 23:09 | 4.27718 | 73.53092 | 2302 ft | 229 kts | 356° |
| 2026-05-08 23:09 | 4.29383 | 73.53091 | 2565 ft | 247 kts | 357° |
| 2026-05-08 23:09 | 4.31143 | 73.53089 | 3018 ft | 258 kts | 357° |
| 2026-05-08 23:10 | 4.32971 | 73.53088 | 3547 ft | 266 kts | 358° |
| 2026-05-08 23:10 | 4.34841 | 73.53085 | 4186 ft | 271 kts | 358° |
| 2026-05-08 23:10 | 4.36733 | 73.53082 | 4888 ft | 273 kts | 358° |
| 2026-05-08 23:10 | 4.38641 | 73.53077 | 5588 ft | 275 kts | 358° |
| 2026-05-08 23:11 | 4.40558 | 73.53072 | 6264 ft | 276 kts | 359° |
| 2026-05-08 23:11 | 4.42450 | 73.53408 | 6719 ft | 283 kts | 26° |
| 2026-05-08 23:11 | 4.44041 | 73.54592 | 7236 ft | 287 kts | 40° |
| 2026-05-08 23:11 | 4.45555 | 73.55916 | 7812 ft | 291 kts | 39° |
| 2026-05-08 23:12 | 4.47092 | 73.57238 | 8462 ft | 292 kts | 39° |
| 2026-05-08 23:12 | 4.48637 | 73.58564 | 9088 ft | 293 kts | 39° |
| 2026-05-08 23:12 | 4.50193 | 73.59900 | 9686 ft | 296 kts | 39° |
| 2026-05-08 23:12 | 4.51762 | 73.61245 | 10258 ft | 300 kts | 39° |
| 2026-05-08 23:13 | 4.53391 | 73.62638 | 10489 ft | 318 kts | 39° |
| 2026-05-08 23:13 | 4.55126 | 73.64122 | 10642 ft | 338 kts | 39° |
| 2026-05-08 23:13 | 4.56967 | 73.65696 | 10819 ft | 358 kts | 39° |
| 2026-05-08 23:13 | 4.58914 | 73.67359 | 11042 ft | 375 kts | 39° |